Time;durP1;ratioP1;P1;durP2;ratioP2;P2;SDS_P1;SDS_P2;PMS_P1;PMS_P2;Temp;Humidity;BMP_temperature;BMP_pressure;BME280_temperature;BME280_humidity;BME280_pressure;Samples;Min_cycle;Max_cycle;Signal;HPM_P1;HPM_P2
2021/12/19 00:09:01;;;;;;;3.78;2.50;;;;;;;-1.82;77.74;98015.25;4996980;28;20065;-82
2021/12/19 00:11:29;;;;;;;5.57;2.88;;;;;;;-1.86;78.03;98017.72;4996479;28;20077;-83
2021/12/19 00:13:57;;;;;;;4.60;2.63;;;;;;;-2.02;78.08;97967.03;5012027;28;20176;-82
2021/12/19 00:16:25;;;;;;;4.60;2.67;;;;;;;-1.88;78.00;97987.81;4995870;28;20427;-82
2021/12/19 00:18:52;;;;;;;4.28;2.78;;;;;;;-1.79;77.52;97980.31;4996578;28;20058;-83
2021/12/19 00:21:21;;;;;;;2.92;2.30;;;;;;;-1.88;77.95;97962.22;4996314;28;20112;-85
2021/12/19 00:23:50;;;;;;;3.65;2.40;;;;;;;-1.83;77.86;97952.94;4996627;28;20054;-84
2021/12/19 00:26:18;;;;;;;5.57;2.50;;;;;;;-1.77;77.60;97949.66;4978605;28;20438;-84
2021/12/19 00:28:47;;;;;;;3.10;2.40;;;;;;;-1.85;78.00;97941.78;4996043;28;20069;-82
2021/12/19 00:31:14;;;;;;;4.40;2.50;;;;;;;-2.00;78.14;97915.88;4996579;28;20054;-81
2021/12/19 00:33:42;;;;;;;3.97;2.60;;;;;;;-1.96;77.84;97905.72;4993948;28;20450;-83
2021/12/19 00:36:12;;;;;;;4.43;2.50;;;;;;;-1.83;78.41;97911.97;4995405;28;20060;-84
2021/12/19 00:38:40;;;;;;;2.92;1.95;;;;;;;-1.80;78.24;97913.75;4996279;28;20487;-82
2021/12/19 00:41:08;;;;;;;3.65;2.45;;;;;;;-1.80;78.01;97894.13;5004119;28;20057;-81
2021/12/19 00:43:43;;;;;;;4.68;2.30;;;;;;;-1.84;78.36;97863.34;5007568;28;20050;-83
2021/12/19 00:46:13;;;;;;;4.07;2.45;;;;;;;-1.88;78.07;97867.53;4989051;28;20050;-81
2021/12/19 00:48:46;;;;;;;2.75;1.73;;;;;;;-1.87;78.64;97857.31;5006926;28;20058;-82
2021/12/19 00:51:17;;;;;;;3.28;1.63;;;;;;;-1.90;78.37;97838.47;5011301;28;20054;-82
2021/12/19 00:53:45;;;;;;;2.28;1.95;;;;;;;-1.84;78.09;97846.28;4999439;28;20055;-84
2021/12/19 00:56:13;;;;;;;2.80;1.80;;;;;;;-1.77;78.55;97831.91;5015197;28;20062;-82
2021/12/19 00:58:42;;;;;;;3.15;1.70;;;;;;;-1.83;78.13;97824.09;5016253;28;20498;-82
2021/12/19 01:01:10;;;;;;;3.90;2.20;;;;;;;-1.87;78.50;97820.63;4998320;28;20092;-82
2021/12/19 01:03:38;;;;;;;2.45;2.10;;;;;;;-1.83;78.88;97814.72;5014447;28;20135;-83
2021/12/19 01:06:05;;;;;;;4.03;1.80;;;;;;;-1.89;78.53;97794.16;5014807;28;20149;-82
2021/12/19 01:08:32;;;;;;;1.90;1.65;;;;;;;-1.92;78.96;97779.56;5015070;28;20057;-82
2021/12/19 01:10:59;;;;;;;1.60;1.48;;;;;;;-1.84;78.59;97800.22;5014762;28;20446;-84
2021/12/19 01:13:28;;;;;;;2.13;1.60;;;;;;;-1.85;78.81;97790.78;5014542;28;20050;-82
2021/12/19 01:15:57;;;;;;;1.60;1.50;;;;;;;-1.88;78.73;97783.91;5015147;28;20054;-82
2021/12/19 01:18:24;;;;;;;3.03;1.38;;;;;;;-1.94;79.02;97760.75;5014813;28;20054;-82
2021/12/19 01:20:51;;;;;;;3.95;1.60;;;;;;;-1.91;78.98;97760.84;5014636;28;20463;-83
2021/12/19 01:23:18;;;;;;;2.28;1.50;;;;;;;-1.91;79.10;97725.00;5014890;28;20053;-83
2021/12/19 01:25:45;;;;;;;2.60;1.42;;;;;;;-1.81;79.13;97733.69;5015562;28;20058;-83
2021/12/19 01:28:12;;;;;;;2.47;1.60;;;;;;;-2.12;78.60;97678.56;5015992;28;20062;-83
2021/12/19 01:30:40;;;;;;;1.95;1.50;;;;;;;-1.85;78.93;97714.00;4990620;28;20054;-84
2021/12/19 01:33:07;;;;;;;1.65;1.40;;;;;;;-1.83;78.87;97716.59;4995088;28;20620;-82
2021/12/19 01:35:35;;;;;;;1.73;1.20;;;;;;;-1.93;78.92;97700.22;4961009;28;20053;-83
2021/12/19 01:38:02;;;;;;;2.22;1.40;;;;;;;-1.90;79.45;97701.13;4994689;28;20077;-84
2021/12/19 01:40:29;;;;;;;3.03;1.38;;;;;;;-1.97;79.71;97675.41;4994622;28;20093;-82
2021/12/19 01:42:57;;;;;;;1.33;1.20;;;;;;;-1.90;79.35;97667.00;4994437;28;20050;-82
2021/12/19 01:45:37;;;;;;;2.38;1.60;;;;;;;-1.81;78.93;97666.31;4994372;28;20050;-83
2021/12/19 01:48:07;;;;;;;2.87;1.30;;;;;;;-1.74;79.12;97669.00;5011928;28;20054;-81
2021/12/19 01:50:35;;;;;;;1.33;1.17;;;;;;;-1.80;79.31;97650.97;4980917;28;20418;-84
2021/12/19 01:53:05;;;;;;;1.77;1.23;;;;;;;-1.77;79.65;97645.91;4994480;28;20057;-83
2021/12/19 01:55:32;;;;;;;1.95;1.10;;;;;;;-1.75;79.54;97638.25;4989631;28;20123;-82
2021/12/19 01:58:00;;;;;;;1.42;1.17;;;;;;;-1.76;79.35;97631.44;5013822;28;20088;-82
2021/12/19 02:00:31;;;;;;;2.05;1.33;;;;;;;-1.79;79.50;97631.34;5013641;28;20057;-82
2021/12/19 02:03:55;;;;;;;1.27;1.10;;;;;;;-1.90;79.72;97597.91;5011964;28;20057;-86
2021/12/19 02:06:26;;;;;;;1.60;1.30;;;;;;;-1.83;79.57;97612.53;4978707;28;20056;-83
2021/12/19 02:08:59;;;;;;;2.35;1.50;;;;;;;-1.73;80.04;97590.50;5013784;28;20050;-84
2021/12/19 02:11:37;;;;;;;1.50;1.30;;;;;;;-1.70;79.69;97590.53;4996496;28;20077;-85
2021/12/19 02:14:12;;;;;;;2.17;1.58;;;;;;;-1.75;79.35;97576.81;5029638;28;20060;-85
2021/12/19 02:16:42;;;;;;;1.60;1.30;;;;;;;-1.87;79.21;97557.03;5013927;28;20065;-85
2021/12/19 02:19:13;;;;;;;1.75;1.20;;;;;;;-1.91;79.59;97543.31;4996619;28;20129;-84
2021/12/19 02:21:40;;;;;;;2.65;1.10;;;;;;;-1.82;79.72;97554.53;5013129;28;20499;-84
2021/12/19 02:24:10;;;;;;;1.52;1.10;;;;;;;-1.78;79.58;97551.19;5011724;28;20084;-83
2021/12/19 02:26:39;;;;;;;1.40;1.10;;;;;;;-1.90;79.66;97523.69;4996065;28;20449;-84
2021/12/19 02:29:07;;;;;;;1.60;1.20;;;;;;;-1.86;79.97;97517.78;5019584;28;20054;-84
2021/12/19 02:31:34;;;;;;;2.25;1.50;;;;;;;-1.81;79.62;97520.41;5015205;28;20050;-82
2021/12/19 02:34:07;;;;;;;3.53;1.27;;;;;;;-1.81;79.80;97490.56;5006773;28;20073;-85
2021/12/19 02:50:15;;;;;;;1.50;1.30;;;;;;;-1.83;79.49;97412.88;4977412;28;20062;-82
2021/12/19 02:52:42;;;;;;;2.75;1.55;;;;;;;-1.70;79.62;97422.47;4980257;28;20131;-83
2021/12/19 02:55:10;;;;;;;2.15;1.48;;;;;;;-1.67;79.77;97417.38;4997253;28;20072;-83
2021/12/19 02:57:39;;;;;;;2.63;1.92;;;;;;;-1.65;79.31;97409.72;5014037;28;20049;-81
2021/12/19 03:00:16;;;;;;;2.25;1.50;;;;;;;-1.73;79.56;97390.84;4996104;28;20486;-83
2021/12/19 03:02:44;;;;;;;3.55;1.73;;;;;;;-1.63;79.36;97402.03;4996591;28;20097;-83
2021/12/19 03:05:11;;;;;;;2.72;1.60;;;;;;;-1.83;79.46;97359.16;4995714;28;20490;-83
2021/12/19 03:07:54;;;;;;;1.20;1.10;;;;;;;-1.67;79.24;97373.84;5011629;28;20510;-82
2021/12/19 03:18:50;;;;;;;1.67;1.50;;;;;;;-1.68;79.53;97358.47;5003688;28;20108;-82
2021/12/19 03:21:18;;;;;;;1.63;1.48;;;;;;;-1.73;79.67;97348.19;5017551;28;20060;-82
2021/12/19 03:24:10;;;;;;;2.80;1.67;;;;;;;-1.76;79.28;97337.06;5002869;28;20053;-82
2021/12/19 03:26:36;;;;;;;2.22;1.42;;;;;;;-1.67;79.31;97339.72;5016708;28;20057;-82
2021/12/19 03:29:07;;;;;;;1.70;1.52;;;;;;;-1.68;79.29;97330.31;5017739;28;20062;-84
2021/12/19 03:31:34;;;;;;;2.40;1.70;;;;;;;-1.60;79.63;97331.25;4999982;28;20113;-84
2021/12/19 03:34:12;;;;;;;2.13;1.40;;;;;;;-1.65;78.89;97320.97;4999381;28;20084;-84
2021/12/19 03:37:44;;;;;;;2.40;1.60;;;;;;;-1.62;79.31;97327.81;4942740;29;20127;-83
2021/12/19 03:40:22;;;;;;;1.98;1.65;;;;;;;-1.59;79.49;97309.06;4957129;29;20062;-84
2021/12/19 03:43:25;;;;;;;1.70;1.60;;;;;;;-1.58;78.88;97301.41;4943326;29;20062;-87
2021/12/19 03:45:52;;;;;;;2.28;1.70;;;;;;;-1.58;79.27;97305.69;4957478;29;20397;-83
2021/12/19 03:48:21;;;;;;;2.33;1.77;;;;;;;-1.56;79.21;97283.53;4955759;29;20163;-83
2021/12/19 03:51:10;;;;;;;2.20;1.63;;;;;;;-1.53;79.26;97279.28;4972277;28;20540;-83
2021/12/19 03:53:49;;;;;;;1.50;1.33;;;;;;;-1.57;79.20;97274.09;4941936;29;20046;-83
2021/12/19 03:56:24;;;;;;;2.40;1.98;;;;;;;-1.56;79.06;97247.69;4932941;29;20540;-83
2021/12/19 03:58:56;;;;;;;2.63;1.65;;;;;;;-1.57;79.26;97262.19;4903215;29;20048;-82
2021/12/19 04:01:23;;;;;;;1.55;1.40;;;;;;;-1.56;79.13;97251.09;4918134;29;20060;-84
2021/12/19 04:04:03;;;;;;;1.67;1.58;;;;;;;-1.55;79.19;97228.91;4918191;29;20056;-83
2021/12/19 04:06:54;;;;;;;2.20;1.70;;;;;;;-1.56;79.01;97216.97;4904815;28;20052;-82
2021/12/19 04:09:23;;;;;;;1.88;1.70;;;;;;;-1.55;78.81;97216.09;4976903;28;20054;-80
2021/12/19 04:11:55;;;;;;;2.40;1.65;;;;;;;-1.47;79.18;97219.59;4977865;28;20055;-84
2021/12/19 04:15:19;;;;;;;1.85;1.70;;;;;;;-1.62;79.43;97189.59;5008922;28;20046;-84
2021/12/19 04:17:47;;;;;;;2.63;1.77;;;;;;;-1.45;79.23;97203.38;4997402;28;20050;-83
2021/12/19 04:20:15;;;;;;;2.50;1.90;;;;;;;-1.40;79.26;97187.19;4997139;28;20154;-82
2021/12/19 04:22:42;;;;;;;2.75;1.90;;;;;;;-1.39;79.38;97186.38;4998169;28;20069;-82
2021/12/19 04:25:11;;;;;;;2.00;1.80;;;;;;;-1.42;79.24;97176.09;4997700;28;20065;-83
2021/12/19 04:27:38;;;;;;;2.65;2.13;;;;;;;-1.50;79.23;97158.13;5020183;28;20046;-82
2021/12/19 04:30:07;;;;;;;2.50;1.80;;;;;;;-1.41;79.17;97157.34;5020546;28;20022;-84
2021/12/19 04:32:40;;;;;;;1.77;1.60;;;;;;;-1.45;79.40;97152.16;5020425;28;20053;-83
2021/12/19 04:35:09;;;;;;;3.13;1.98;;;;;;;-1.38;79.17;97147.94;5020300;28;20054;-82
2021/12/19 04:40:46;;;;;;;2.85;2.20;;;;;;;-1.40;79.27;97143.66;5013964;28;20114;-84
2021/12/19 05:14:54;;;;;;;3.50;2.20;;;;;;;-1.20;78.79;97074.66;5016661;28;20085;-82
2021/12/19 05:17:25;;;;;;;2.88;2.55;;;;;;;-1.20;78.51;97067.81;5016111;28;20054;-82
2021/12/19 05:22:57;;;;;;;3.10;2.28;;;;;;;-1.31;78.58;97064.34;4969442;28;20082;-83
2021/12/19 05:25:25;;;;;;;4.47;2.53;;;;;;;-1.31;79.09;97054.13;5011032;28;20046;-87
2021/12/19 05:27:54;;;;;;;2.83;2.13;;;;;;;-1.30;78.89;97035.31;5019112;28;20089;-84
2021/12/19 05:30:22;;;;;;;4.00;2.30;;;;;;;-1.18;79.17;97043.06;4995970;28;20058;-84
2021/12/19 05:32:51;;;;;;;5.35;2.15;;;;;;;-1.19;79.02;97027.69;4977681;28;20060;-84
2021/12/19 05:35:28;;;;;;;5.45;2.53;;;;;;;-1.13;78.44;97028.56;4977997;28;20050;-83
2021/12/19 05:46:32;;;;;;;4.90;2.55;;;;;;;-1.21;78.59;97024.25;4988367;28;20124;-82
2021/12/19 05:48:59;;;;;;;4.18;2.70;;;;;;;-1.28;78.80;97013.13;4992529;28;20134;-83
2021/12/19 05:51:26;;;;;;;4.10;2.38;;;;;;;-1.20;78.85;97010.63;4976605;28;20046;-82
2021/12/19 05:53:53;;;;;;;3.67;2.85;;;;;;;-1.13;78.99;97005.50;4995782;28;20108;-84
2021/12/19 05:56:21;;;;;;;3.95;2.80;;;;;;;-1.14;78.71;97005.50;4996041;28;20095;-85
2021/12/19 05:58:48;;;;;;;4.90;2.80;;;;;;;-1.14;78.67;97006.38;4977985;28;20063;-83
2021/12/19 06:01:15;;;;;;;2.97;2.42;;;;;;;-1.10;78.56;97002.97;4995084;28;20050;-83
2021/12/19 06:03:42;;;;;;;4.43;2.63;;;;;;;-1.07;78.40;96997.00;4997155;28;20053;-83
2021/12/19 06:06:09;;;;;;;3.88;2.53;;;;;;;-1.02;78.74;96997.00;4977259;28;20050;-84
2021/12/19 06:08:36;;;;;;;3.85;2.50;;;;;;;-0.97;78.23;96990.19;4995325;28;20057;-85
2021/12/19 06:11:03;;;;;;;4.15;2.50;;;;;;;-0.94;77.95;96973.13;4994964;28;20081;-82
2021/12/19 06:13:30;;;;;;;3.20;2.55;;;;;;;-0.91;78.30;96967.16;4995053;28;20058;-83
2021/12/19 06:15:57;;;;;;;2.85;2.40;;;;;;;-0.89;77.70;96955.19;4961564;28;20499;-83
2021/12/19 06:18:48;;;;;;;5.40;2.60;;;;;;;-0.80;78.04;96962.03;4994976;28;20486;-83
2021/12/19 06:21:15;;;;;;;3.55;2.63;;;;;;;-0.73;77.98;96956.06;4994718;28;20061;-84
2021/12/19 06:23:42;;;;;;;4.80;2.70;;;;;;;-0.72;77.60;96956.06;5009514;28;20061;-85
2021/12/19 06:26:11;;;;;;;4.57;2.53;;;;;;;-0.75;77.55;96935.56;4978353;28;20141;-84
2021/12/19 06:28:40;;;;;;;5.75;3.42;;;;;;;-0.73;77.10;96933.88;4991244;28;20396;-85
2021/12/19 06:31:07;;;;;;;4.85;2.90;;;;;;;-0.57;77.15;96936.44;4996491;28;20538;-86
2021/12/19 06:33:37;;;;;;;3.63;2.75;;;;;;;-0.60;77.14;96927.03;4957304;28;20431;-84
2021/12/19 06:36:22;;;;;;;3.75;2.72;;;;;;;-0.53;77.16;96920.22;4957745;28;20427;-83
2021/12/19 06:38:49;;;;;;;3.00;2.40;;;;;;;-0.49;77.33;96909.09;4973933;28;20085;-85
2021/12/19 06:41:16;;;;;;;4.47;2.40;;;;;;;-0.32;76.83;96920.19;4973443;28;20141;-81
2021/12/19 06:43:43;;;;;;;4.28;2.80;;;;;;;-0.24;76.60;96912.47;4973960;28;20138;-82
2021/12/19 06:46:10;;;;;;;4.70;2.90;;;;;;;-0.21;76.02;96909.94;4990478;28;20043;-83
2021/12/19 06:48:37;;;;;;;4.43;2.78;;;;;;;-0.17;75.95;96910.75;4965983;28;20137;-82
2021/12/19 06:51:04;;;;;;;4.30;2.72;;;;;;;-0.16;75.83;96895.38;4973929;28;20058;-80
2021/12/19 06:53:31;;;;;;;3.58;2.60;;;;;;;-0.13;75.92;96904.78;4992823;28;20078;-82
2021/12/19 06:55:58;;;;;;;4.25;2.25;;;;;;;-0.16;75.65;96885.09;4994723;28;20396;-82
2021/12/19 06:58:25;;;;;;;9.05;3.55;;;;;;;-0.08;75.24;96893.66;4976793;28;20047;-83
2021/12/19 07:00:53;;;;;;;5.30;3.00;;;;;;;-0.03;75.25;96889.34;4957933;28;20047;-86
2021/12/19 07:03:23;;;;;;;4.22;2.65;;;;;;;-0.01;75.06;96873.97;4974891;28;20058;-86
2021/12/19 07:05:51;;;;;;;;;;;;;;;-0.08;75.40;96887.69;4978108;28;20058;-85
2021/12/19 07:08:18;;;;;;;5.43;2.85;;;;;;;-0.05;75.79;96882.53;4996253;28;20057;-87
2021/12/19 07:10:45;;;;;;;3.63;2.63;;;;;;;-0.04;76.22;96871.41;4998609;28;20145;-87
2021/12/19 07:13:18;;;;;;;5.88;2.90;;;;;;;0.04;75.27;96872.22;5000323;28;20050;-85
2021/12/19 07:15:50;;;;;;;7.40;4.00;;;;;;;0.05;75.60;96857.69;4995991;28;20057;-84
2021/12/19 07:18:17;;;;;;;6.38;3.00;;;;;;;0.10;75.02;96858.53;4998697;28;20058;-87
2021/12/19 07:20:45;;;;;;;3.97;2.55;;;;;;;0.17;74.74;96855.06;5014346;28;20062;-88
2021/12/19 07:23:14;;;;;;;3.45;2.28;;;;;;;0.13;74.75;96854.25;5002532;28;20058;-90
2021/12/19 07:25:46;;;;;;;5.65;3.75;;;;;;;0.17;74.67;96849.94;4965185;28;20034;-85
2021/12/19 07:28:20;;;;;;;5.55;2.72;;;;;;;0.17;74.65;96839.66;4946806;28;20058;-85
2021/12/19 07:30:47;;;;;;;5.25;2.60;;;;;;;0.25;74.49;96839.66;4979287;28;20050;-85
2021/12/19 07:33:14;;;;;;;6.53;2.67;;;;;;;0.18;74.83;96839.66;4996380;28;20051;-82
2021/12/19 07:35:45;;;;;;;4.45;2.80;;;;;;;0.29;74.98;96843.91;4982339;28;20055;-82
2021/12/19 07:38:18;;;;;;;4.50;2.50;;;;;;;0.21;74.30;96815.69;4975016;28;20055;-84
2021/12/19 07:40:47;;;;;;;3.90;2.63;;;;;;;0.41;74.16;96836.16;4975464;28;20573;-85
2021/12/19 07:43:14;;;;;;;4.95;2.55;;;;;;;0.12;74.01;96790.91;4975889;28;20054;-86
2021/12/19 07:45:41;;;;;;;2.90;2.35;;;;;;;0.47;74.38;96848.09;4977411;28;20051;-84
2021/12/19 07:48:08;;;;;;;3.50;2.50;;;;;;;0.52;74.13;96841.25;4984052;28;20057;-87
2021/12/19 07:50:36;;;;;;;5.28;2.42;;;;;;;0.55;74.06;96828.38;5011899;28;20061;-87
2021/12/19 07:53:04;;;;;;;5.18;2.80;;;;;;;0.58;73.82;96825.78;4960140;28;20077;-82
2021/12/19 07:55:34;;;;;;;3.70;2.60;;;;;;;0.56;73.97;96814.66;5018237;28;20367;-88
2021/12/19 07:58:01;;;;;;;3.67;2.47;;;;;;;0.61;73.92;96825.78;5017001;28;20054;-87
2021/12/19 08:00:28;;;;;;;4.43;2.70;;;;;;;0.73;74.10;96815.44;4999416;28;20107;-90
2021/12/19 08:03:00;;;;;;;3.53;2.40;;;;;;;0.79;73.56;96812.81;4984465;28;20046;-86
2021/12/19 08:05:29;;;;;;;5.63;2.53;;;;;;;0.73;73.22;96787.16;5016984;28;20081;-87
2021/12/19 08:08:00;;;;;;;7.30;3.20;;;;;;;0.64;73.24;96788.94;5019372;28;20069;-84
2021/12/19 08:13:03;;;;;;;4.03;2.60;;;;;;;0.90;74.16;96802.44;5040060;28;20038;-84
2021/12/19 08:15:31;;;;;;;5.67;3.00;;;;;;;1.02;73.58;96781.78;5040033;28;20048;-86
2021/12/19 08:17:59;;;;;;;4.85;2.90;;;;;;;1.17;73.11;96796.25;5023327;28;20053;-83
2021/12/19 08:20:27;;;;;;;4.05;2.80;;;;;;;1.15;72.72;96777.41;5040100;28;20040;-87
2021/12/19 08:22:55;;;;;;;6.05;3.20;;;;;;;1.40;72.53;96790.06;5033747;28;20057;-87
2021/12/19 08:25:24;;;;;;;5.05;2.67;;;;;;;1.39;72.31;96780.63;5011533;28;20049;-89
2021/12/19 08:27:52;;;;;;;4.72;2.72;;;;;;;1.40;71.99;96769.50;5034490;28;20057;-88
2021/12/19 08:30:20;;;;;;;5.07;2.97;;;;;;;1.56;72.12;96796.75;5019204;28;20053;-84
2021/12/19 08:32:47;;;;;;;5.88;3.25;;;;;;;1.53;71.88;96760.78;5038154;28;20049;-85
2021/12/19 08:35:16;;;;;;;4.28;3.00;;;;;;;1.57;72.31;96771.88;5036796;28;20053;-87
2021/12/19 08:37:48;;;;;;;5.45;3.53;;;;;;;1.70;72.44;96768.31;5028247;28;20081;-89
2021/12/19 08:40:15;;;;;;;6.30;3.30;;;;;;;1.53;72.49;96744.50;4980285;28;20447;-86
2021/12/19 08:42:42;;;;;;;5.97;3.15;;;;;;;1.59;72.58;96760.72;5017834;28;20085;-87
2021/12/19 08:45:10;;;;;;;6.13;3.38;;;;;;;1.68;72.79;96777.78;5008287;28;20085;-90
2021/12/19 08:47:37;;;;;;;5.93;3.55;;;;;;;1.73;72.63;96770.00;5020189;28;20065;-86
2021/12/19 08:50:06;;;;;;;5.22;3.45;;;;;;;1.50;72.70;96737.63;5016002;28;20144;-85
2021/12/19 08:52:33;;;;;;;5.55;3.92;;;;;;;1.51;72.79;96735.94;5017758;28;20060;-89
2021/12/19 08:55:03;;;;;;;4.85;3.50;;;;;;;1.67;72.31;96759.75;4995938;28;20058;-87
2021/12/19 08:57:30;;;;;;;7.25;3.60;;;;;;;1.58;72.45;96753.00;5021821;28;20056;-86
2021/12/19 08:59:58;;;;;;;5.70;3.85;;;;;;;1.41;72.78;96730.03;4997661;28;20049;-85
2021/12/19 09:02:25;;;;;;;5.75;3.80;;;;;;;1.62;72.86;96744.38;5014673;28;20058;-84
2021/12/19 09:04:52;;;;;;;6.80;4.43;;;;;;;1.67;73.28;96732.31;4981349;28;20514;-85
2021/12/19 09:07:19;;;;;;;7.10;4.15;;;;;;;1.76;72.33;96734.75;5013321;28;20061;-84
2021/12/19 09:09:48;;;;;;;7.57;4.30;;;;;;;1.75;72.29;96730.50;5014518;28;20064;-84
2021/12/19 09:12:16;;;;;;;6.22;3.85;;;;;;;1.64;71.92;96720.34;5014236;28;20061;-84
2021/12/19 09:14:44;;;;;;;8.02;4.68;;;;;;;1.55;72.59;96714.41;5018739;28;20061;-85
2021/12/19 09:17:11;;;;;;;7.30;4.35;;;;;;;1.68;72.47;96718.59;5015139;28;20509;-83
2021/12/19 09:19:39;;;;;;;7.90;4.97;;;;;;;1.78;72.52;96715.00;5013572;28;20046;-84
2021/12/19 09:22:07;;;;;;;9.48;4.95;;;;;;;1.90;71.91;96706.31;5014541;28;20057;-85
2021/12/19 09:24:35;;;;;;;9.30;4.57;;;;;;;2.07;72.34;96703.50;5014490;28;20056;-83
2021/12/19 09:27:03;;;;;;;11.52;5.68;;;;;;;2.06;71.46;96714.66;5014325;28;20054;-85
2021/12/19 09:29:31;;;;;;;9.85;4.53;;;;;;;2.03;71.64;96700.13;5012651;28;20050;-84
2021/12/19 09:31:59;;;;;;;8.80;5.15;;;;;;;1.94;72.03;96704.56;5014127;28;20054;-85
2021/12/19 09:34:28;;;;;;;8.50;5.20;;;;;;;1.98;71.64;96701.03;5014232;28;20107;-85
2021/12/19 09:36:56;;;;;;;8.68;5.18;;;;;;;1.73;71.52;96657.59;4996482;28;20084;-85
2021/12/19 09:39:25;;;;;;;6.82;4.70;;;;;;;1.95;71.62;96696.78;5017197;28;20050;-85
2021/12/19 09:41:56;;;;;;;8.45;5.03;;;;;;;2.02;71.63;96693.28;5013781;28;20054;-86
2021/12/19 09:44:25;;;;;;;10.88;5.40;;;;;;;2.04;71.32;96675.22;5015557;28;20050;-85
2021/12/19 09:46:53;;;;;;;8.25;4.88;;;;;;;2.14;71.16;96684.53;4998309;28;20136;-86
2021/12/19 09:49:21;;;;;;;9.65;5.18;;;;;;;2.04;71.14;96676.09;4939151;28;1135766;-86
2021/12/19 09:51:51;;;;;;;9.70;5.90;;;;;;;1.82;72.00;96672.06;5010608;28;20058;-84
2021/12/19 09:54:20;;;;;;;9.10;5.22;;;;;;;1.84;72.27;96676.34;4975288;28;20046;-86
2021/12/19 09:56:48;;;;;;;9.82;6.10;;;;;;;1.80;72.04;96669.53;4974493;28;20058;-85
2021/12/19 09:59:19;;;;;;;9.55;5.78;;;;;;;1.92;72.61;96662.53;4976480;28;20160;-87
2021/12/19 10:01:47;;;;;;;;;;;;;;;1.90;72.46;96666.84;4976543;28;20058;-85
2021/12/19 10:04:38;;;;;;;7.60;5.35;;;;;;;2.01;72.19;96662.41;4976847;28;19926;-86
2021/12/19 10:07:20;;;;;;;8.82;4.57;;;;;;;2.12;71.36;96651.94;4976223;28;20502;-86
2021/12/19 10:10:13;;;;;;;11.73;5.18;;;;;;;2.13;71.59;96654.50;5009024;28;20071;-85
2021/12/19 10:12:49;;;;;;;6.15;4.25;;;;;;;2.16;71.87;96648.44;4984448;28;20046;-85
2021/12/19 10:15:22;;;;;;;6.82;4.63;;;;;;;2.07;71.86;96628.00;4981598;28;20059;-85
2021/12/19 10:18:00;;;;;;;8.95;4.80;;;;;;;2.29;71.27;96649.13;4977443;28;20101;-85
2021/12/19 10:20:42;;;;;;;7.70;4.70;;;;;;;2.39;71.49;96645.53;5008319;28;20061;-86
2021/12/19 10:23:19;;;;;;;7.90;4.70;;;;;;;2.45;71.56;96637.69;4976119;28;20138;-86
2021/12/19 10:26:01;;;;;;;10.70;5.00;;;;;;;2.43;71.33;96629.13;4975592;28;20515;-86
2021/12/19 10:28:30;;;;;;;11.45;6.10;;;;;;;2.33;71.27;96609.56;4974242;28;20109;-86
2021/12/19 10:30:59;;;;;;;9.35;5.10;;;;;;;2.45;71.11;96623.09;4977152;28;20054;-84
2021/12/19 10:33:31;;;;;;;8.55;4.85;;;;;;;2.30;71.54;96589.00;4959448;28;20050;-87
2021/12/19 10:36:07;;;;;;;10.25;5.15;;;;;;;2.43;70.94;96618.81;4979414;28;20078;-85
2021/12/19 10:38:43;;;;;;;9.38;5.43;;;;;;;2.18;71.60;96606.34;4979139;28;20471;-85
2021/12/19 10:41:14;;;;;;;11.13;6.43;;;;;;;2.05;71.75;96603.09;4978639;28;20054;-86
2021/12/19 10:43:46;;;;;;;10.13;5.68;;;;;;;2.18;71.95;96618.38;4982051;28;20051;-86
2021/12/19 10:46:13;;;;;;;9.10;5.10;;;;;;;2.21;71.52;96619.16;4979231;28;20058;-83
2021/12/19 10:48:43;;;;;;;9.38;5.30;;;;;;;2.12;71.93;96615.91;4977600;28;20054;-86
2021/12/19 10:51:11;;;;;;;9.38;5.53;;;;;;;1.97;72.29;96597.22;4977872;28;20054;-86
2021/12/19 10:53:54;;;;;;;13.40;5.70;;;;;;;2.14;72.02;96609.00;4977061;28;20100;-86
2021/12/19 10:56:25;;;;;;;10.82;5.82;;;;;;;2.15;71.69;96605.53;4957178;29;20059;-84
2021/12/19 10:58:56;;;;;;;;;;;;;;;1.89;72.47;96613.66;4956444;29;20537;-85
2021/12/19 11:01:35;;;;;;;10.02;5.25;;;;;;;1.98;72.95;96605.78;4970700;28;19965;-85
2021/12/19 11:04:15;;;;;;;11.18;5.85;;;;;;;1.93;72.96;96611.00;4957897;29;20085;-84
2021/12/19 11:06:44;;;;;;;11.20;6.78;;;;;;;1.90;72.33;96612.78;4954748;29;20055;-85
2021/12/19 11:09:14;;;;;;;13.70;6.93;;;;;;;1.92;73.26;96616.19;4938991;29;20063;-85
2021/12/19 11:11:46;;;;;;;11.77;6.68;;;;;;;1.93;73.07;96605.00;4954440;28;20059;-85
2021/12/19 11:14:30;;;;;;;12.07;6.90;;;;;;;1.74;72.45;96582.13;4938990;29;20142;-87
2021/12/19 11:17:04;;;;;;;13.63;6.97;;;;;;;1.87;72.73;96605.94;4956766;29;20089;-87
2021/12/19 11:19:33;;;;;;;13.38;7.03;;;;;;;1.66;73.11;96596.81;4970387;28;20513;-86
2021/12/19 11:22:23;;;;;;;15.73;7.75;;;;;;;1.84;73.04;96596.53;4956676;29;20075;-86
2021/12/19 11:25:00;;;;;;;16.05;8.13;;;;;;;1.74;73.02;96604.41;4941199;29;20063;-86
2021/12/19 11:27:30;;;;;;;15.13;7.72;;;;;;;1.69;73.47;96585.63;4939449;29;20059;-86
2021/12/19 11:29:58;;;;;;;17.00;7.50;;;;;;;1.82;73.49;96592.28;4957651;28;20059;-87
2021/12/19 11:32:43;;;;;;;13.70;7.63;;;;;;;1.89;72.69;96595.63;4942188;29;20051;-87
2021/12/19 11:35:14;;;;;;;10.98;6.72;;;;;;;1.96;73.14;96580.09;4941788;29;20423;-87
2021/12/19 11:37:51;;;;;;;12.75;7.25;;;;;;;1.92;72.83;96578.41;4959408;29;20095;-87
2021/12/19 11:40:22;;;;;;;17.65;7.47;;;;;;;1.96;73.28;96594.69;4959755;29;20053;-86
2021/12/19 11:43:09;;;;;;;12.32;6.60;;;;;;;2.06;72.75;96593.66;4954440;28;20055;-85
2021/12/19 11:48:27;;;;;;;19.00;10.45;;;;;;;2.08;72.87;96591.91;4969014;28;20051;-85
2021/12/19 11:50:59;;;;;;;16.00;7.63;;;;;;;2.11;72.57;96588.44;4995536;28;20188;-87
2021/12/19 11:53:30;;;;;;;13.77;7.40;;;;;;;2.08;73.62;96596.22;5028904;28;20058;-86
2021/12/19 11:56:08;;;;;;;16.15;6.93;;;;;;;2.10;73.22;96594.47;5034791;28;20100;-86
2021/12/19 11:58:48;;;;;;;17.15;7.85;;;;;;;2.19;72.26;96602.03;5000731;28;20466;-86
2021/12/19 12:01:24;;;;;;;15.07;7.60;;;;;;;1.92;72.94;96593.88;5010022;28;20054;-86
2021/12/19 12:04:00;;;;;;;15.18;7.30;;;;;;;1.90;73.43;96600.75;4999572;28;20585;-85
2021/12/19 12:06:35;;;;;;;15.00;7.57;;;;;;;1.84;73.71;96606.00;4981667;28;20055;-88
2021/12/19 12:09:14;;;;;;;14.50;7.20;;;;;;;1.90;74.02;96595.63;4980302;28;20150;-87
2021/12/19 12:11:59;;;;;;;16.45;7.93;;;;;;;1.93;73.79;96594.72;4985322;28;20085;-88
2021/12/19 12:14:31;;;;;;;16.17;7.78;;;;;;;1.96;73.60;96599.84;4999096;28;20058;-85
2021/12/19 12:17:06;;;;;;;21.85;9.38;;;;;;;2.00;73.39;96592.03;4997046;28;20051;-83
2021/12/19 12:19:50;;;;;;;19.63;8.32;;;;;;;1.94;73.32;96591.28;4987709;28;20100;-83
2021/12/19 12:22:24;;;;;;;18.13;9.50;;;;;;;1.89;74.12;96587.91;5005160;28;20054;-84
2021/12/19 12:25:42;;;;;;;19.25;7.97;;;;;;;1.86;73.70;96582.81;5014786;28;20058;-85
2021/12/19 12:28:21;;;;;;;15.55;7.35;;;;;;;1.68;74.15;96571.91;4971309;28;20118;-84
2021/12/19 12:30:52;;;;;;;13.50;7.05;;;;;;;1.75;73.88;96577.81;4997531;28;20050;-85
2021/12/19 12:33:26;;;;;;;16.45;8.02;;;;;;;1.79;74.02;96582.06;5012704;28;20050;-84
2021/12/19 12:35:57;;;;;;;16.80;7.75;;;;;;;1.76;74.16;96571.78;4998266;28;20515;-83
2021/12/19 12:38:25;;;;;;;16.10;8.40;;;;;;;1.72;73.93;96560.72;5001224;28;20058;-84
2021/12/19 12:41:07;;;;;;;15.05;7.63;;;;;;;1.85;74.16;96581.97;5006495;28;20051;-87
2021/12/19 12:43:40;;;;;;;16.33;8.82;;;;;;;1.63;73.86;96537.66;5003219;28;20065;-86
2021/12/19 12:46:25;;;;;;;16.05;7.60;;;;;;;1.89;73.75;96587.91;5007547;28;20082;-90
2021/12/19 12:48:58;;;;;;;13.35;7.28;;;;;;;1.84;74.14;96585.41;4970979;28;20524;-85
2021/12/19 12:51:34;;;;;;;16.45;8.68;;;;;;;1.76;73.98;96589.81;5022478;28;20050;-84
2021/12/19 12:54:10;;;;;;;19.70;9.45;;;;;;;1.74;74.16;96568.38;5009550;28;20427;-84
2021/12/19 12:56:46;;;;;;;18.77;9.68;;;;;;;1.81;74.15;96582.88;5009676;28;20062;-85
2021/12/19 12:59:18;;;;;;;16.67;8.32;;;;;;;1.77;73.92;96599.25;5015525;28;20494;-86
2021/12/19 13:01:50;;;;;;;13.63;6.57;;;;;;;1.80;73.89;96594.88;5007790;28;20046;-84
2021/12/19 13:04:27;;;;;;;17.00;8.40;;;;;;;1.78;74.20;96591.47;5001129;28;20050;-85
2021/12/19 13:07:17;;;;;;;10.93;6.47;;;;;;;1.78;74.18;96588.91;5027790;28;20465;-85
2021/12/19 13:09:57;;;;;;;11.63;6.70;;;;;;;1.72;74.51;96589.00;4997856;28;20145;-86
2021/12/19 13:12:25;;;;;;;15.50;7.25;;;;;;;1.79;74.32;96588.03;5001342;28;20042;-86
2021/12/19 13:14:55;;;;;;;15.30;7.72;;;;;;;1.73;74.17;96580.41;5002709;28;20058;-85
2021/12/19 13:17:33;;;;;;;22.15;9.70;;;;;;;1.73;74.23;96593.28;4999796;28;20054;-86
2021/12/19 13:20:10;;;;;;;14.85;8.10;;;;;;;1.81;74.66;96593.19;5006173;28;20072;-87